createdAt,value
2022-08-05T00:01:36.499Z,101117.34
2022-08-05T00:04:18.421Z,101114.78
2022-08-05T00:06:51.692Z,101111.47
2022-08-05T00:09:20.547Z,101111.47
2022-08-05T00:11:56.185Z,101104.16
2022-08-05T00:14:31.423Z,101113.19
2022-08-05T00:17:02.089Z,101098.88
2022-08-05T00:19:33.745Z,101102.28
2022-08-05T00:22:14.388Z,101101.84
2022-08-05T00:24:46.405Z,101097.34
2022-08-05T00:27:28.404Z,101097.78
2022-08-05T00:30:11.421Z,101096.69
2022-08-05T00:32:40.652Z,101090.66
2022-08-05T00:35:09.352Z,101091.75
2022-08-05T00:37:53.349Z,101092.84
2022-08-05T00:40:28.339Z,101100.56
2022-08-05T00:42:59.985Z,101091.75
2022-08-05T00:45:42.898Z,101089.19
2022-08-05T00:48:17.751Z,101087.69
2022-08-05T00:50:56.157Z,101084.06
2022-08-05T00:53:45.031Z,101090.97
2022-08-05T00:56:17.305Z,101093.94
2022-08-05T00:58:50.962Z,101093.34
2022-08-05T01:01:42.098Z,101095.53
2022-08-05T01:04:13.878Z,101094.44
2022-08-05T01:06:43.740Z,101093.16
2022-08-05T01:09:20.022Z,101095.53
2022-08-05T01:11:52.455Z,101096.03
2022-08-05T01:14:29.484Z,101094.16
2022-08-05T01:17:05.542Z,101100.50
2022-08-05T01:20:02.480Z,101109.69
2022-08-05T01:22:42.081Z,101099.50
2022-08-05T01:25:41.102Z,101099.44
2022-08-05T01:28:37.658Z,101102.44
2022-08-05T01:31:26.768Z,101106.69
2022-08-05T01:34:03.463Z,101116.75
2022-08-05T01:36:42.350Z,101118.69
2022-08-05T01:39:36.092Z,101112.78
2022-08-05T01:42:09.634Z,101105.97
2022-08-05T01:44:40.538Z,101111.13
2022-08-05T01:47:11.047Z,101113.25
2022-08-05T01:50:01.641Z,101107.69
2022-08-05T01:52:34.994Z,101101.44
2022-08-05T01:55:09.223Z,101106.34
2022-08-05T01:58:11.162Z,101103.78
2022-08-05T02:00:37.173Z,101108.47
2022-08-05T02:03:24.012Z,101114.47
2022-08-05T02:05:57.808Z,101106.16
2022-08-05T02:08:30.766Z,101106.41
2022-08-05T02:11:05.720Z,101111.31
2022-08-05T02:14:01.033Z,101119.00
2022-08-05T02:16:42.379Z,101118.34
2022-08-05T02:19:41.415Z,101116.44
2022-08-05T02:22:33.649Z,101113.44
2022-08-05T02:25:12.848Z,101119.44
2022-08-05T02:27:59.332Z,101122.28
2022-08-05T02:30:38.097Z,101120.09
2022-08-05T02:33:24.603Z,101129.13
2022-08-05T02:36:09.438Z,101134.03
2022-08-05T02:38:38.680Z,101131.50
2022-08-05T02:41:16.933Z,101137.28
2022-08-05T02:44:06.615Z,101132.78
2022-08-05T02:46:53.093Z,101135.13
2022-08-05T02:49:40.710Z,101140.88
2022-08-05T02:52:30.201Z,101144.47
2022-08-05T02:55:06.564Z,101152.19
2022-08-05T02:58:12.297Z,101146.66
2022-08-05T03:00:30.464Z,101140.38
2022-08-05T03:03:02.170Z,101143.22
2022-08-05T03:06:53.819Z,101146.66
2022-08-05T03:08:30.523Z,101147.53
2022-08-05T03:11:53.817Z,101154.22
2022-08-05T03:13:52.156Z,101144.34
2022-08-05T03:16:31.906Z,101150.31
2022-08-05T03:19:12.904Z,101156.72
2022-08-05T03:21:49.582Z,101156.41
2022-08-05T03:24:30.017Z,101161.13
2022-08-05T03:27:00.521Z,101161.94
2022-08-05T03:29:45.343Z,101166.69
2022-08-05T03:32:20.437Z,101159.31
2022-08-05T03:34:51.266Z,101162.91
2022-08-05T03:37:22.659Z,101157.06
2022-08-05T03:40:01.086Z,101154.41
2022-08-05T03:42:41.594Z,101155.41
2022-08-05T03:45:21.846Z,101164.22
2022-08-05T03:47:57.038Z,101153.25
2022-08-05T03:50:29.351Z,101156.81
2022-08-05T03:55:51.094Z,101158.72
2022-08-05T03:56:10.566Z,101155.19
2022-08-05T03:58:45.306Z,101159.66
2022-08-05T04:01:15.735Z,101160.97
2022-08-05T04:04:08.979Z,101157.22
2022-08-05T04:06:47.653Z,101158.66
2022-08-05T04:09:26.585Z,101154.63
2022-08-05T04:11:56.937Z,101156.72
2022-08-05T04:14:30.265Z,101158.53
2022-08-05T04:17:02.966Z,101160.84
2022-08-05T04:19:32.060Z,101153.28
2022-08-05T04:22:08.180Z,101153.69
2022-08-05T04:24:44.371Z,101154.38
2022-08-05T04:27:16.196Z,101162.03
2022-08-05T04:29:47.583Z,101151.75
2022-08-05T04:32:20.129Z,101149.56
2022-08-05T04:34:59.717Z,101159.44
2022-08-05T04:38:01.373Z,101156.72
2022-08-05T04:40:19.623Z,101155.25
2022-08-05T04:42:47.818Z,101146.31
2022-08-05T04:45:31.143Z,101151.22
2022-08-05T04:48:18.690Z,101148.25
2022-08-05T04:51:01.573Z,101144.25
2022-08-05T04:53:33.606Z,101148.06
2022-08-05T04:56:32.375Z,101143.78
2022-08-05T04:58:52.730Z,101139.31
2022-08-05T05:02:08.030Z,101144.22
2022-08-05T05:04:09.618Z,101143.25
2022-08-05T05:06:44.437Z,101137.63
2022-08-05T05:09:17.276Z,101135.56
2022-08-05T05:11:54.306Z,101131.44
2022-08-05T05:14:27.776Z,101130.47
2022-08-05T05:17:01.066Z,101132.22
2022-08-05T05:19:36.753Z,101130.53
2022-08-05T05:22:22.608Z,101137.72
2022-08-05T05:24:57.410Z,101134.09
2022-08-05T05:27:45.090Z,101135.63
2022-08-05T05:30:31.087Z,101137.38
2022-08-05T05:33:15.884Z,101132.69
2022-08-05T05:35:47.722Z,101136.56
2022-08-05T05:38:22.507Z,101135.97
2022-08-05T05:40:58.922Z,101139.19
2022-08-05T05:43:58.161Z,101130.63
2022-08-05T05:46:18.823Z,101131.50
2022-08-05T05:48:48.931Z,101137.88
2022-08-05T05:51:27.723Z,101130.91
2022-08-05T05:53:59.778Z,101142.88
2022-08-05T05:56:34.799Z,101145.28
2022-08-05T05:59:06.730Z,101144.69
2022-08-05T06:01:39.423Z,101149.66
2022-08-05T06:04:11.922Z,101145.16
2022-08-05T06:06:47.767Z,101156.88
2022-08-05T06:09:24.850Z,101152.50
2022-08-05T06:12:01.976Z,101154.34
2022-08-05T06:14:31.997Z,101156.16
2022-08-05T06:17:31.956Z,101160.56
2022-08-05T06:19:57.015Z,101155.81
2022-08-05T06:22:34.034Z,101151.59
2022-08-05T06:25:59.762Z,101156.00
2022-08-05T06:28:11.467Z,101158.31
2022-08-05T06:30:41.539Z,101156.22
2022-08-05T06:33:10.719Z,101157.47
2022-08-05T06:36:07.851Z,101161.03
2022-08-05T06:38:36.322Z,101158.47
2022-08-05T06:41:08.099Z,101164.53
2022-08-05T06:43:59.228Z,101168.59
2022-08-05T06:46:30.069Z,101161.13
2022-08-05T06:49:01.388Z,101165.31
2022-08-05T06:51:31.431Z,101164.84
2022-08-05T06:54:02.242Z,101167.66
2022-08-05T06:56:34.318Z,101162.16
2022-08-05T06:59:08.460Z,101157.94
2022-08-05T07:01:37.480Z,101154.03
2022-08-05T07:04:09.524Z,101157.50
2022-08-05T07:06:37.945Z,101157.69
2022-08-05T07:09:06.057Z,101164.59
2022-08-05T07:11:37.317Z,101175.94
2022-08-05T07:14:29.304Z,101164.66
2022-08-05T07:18:00.693Z,101175.06
2022-08-05T07:22:41.949Z,101166.72
2022-08-05T07:25:54.345Z,101167.88
2022-08-05T07:28:05.368Z,101166.19
2022-08-05T07:30:39.378Z,101170.41
2022-08-05T07:33:16.977Z,101172.09
2022-08-05T07:36:03.319Z,101169.59
2022-08-05T07:38:42.858Z,101159.94
2022-08-05T07:42:07.901Z,101161.69
2022-08-05T07:44:19.163Z,101166.16
2022-08-05T07:46:49.543Z,101161.88
2022-08-05T07:49:20.844Z,101167.25
2022-08-05T07:51:54.725Z,101160.50
2022-08-05T07:54:30.255Z,101161.66
2022-08-05T07:57:22.456Z,101154.84
2022-08-05T07:59:53.589Z,101156.75
2022-08-05T08:02:31.358Z,101153.56
2022-08-05T08:05:17.483Z,101154.63
2022-08-05T08:08:00.274Z,101146.31
2022-08-05T08:10:30.323Z,101153.31
2022-08-05T08:12:59.107Z,101163.31
2022-08-05T08:16:33.234Z,101167.56
2022-08-05T08:18:20.897Z,101158.63
2022-08-05T08:21:01.996Z,101155.50
2022-08-05T08:24:01.768Z,101152.38
2022-08-05T08:26:27.109Z,101155.66
2022-08-05T08:29:45.094Z,101159.03
2022-08-05T08:31:51.496Z,101155.81
2022-08-05T08:34:30.545Z,101151.19
2022-08-05T08:37:04.653Z,101144.75
2022-08-05T08:39:37.806Z,101146.06
2022-08-05T08:42:32.518Z,101143.72
2022-08-05T08:45:22.152Z,101143.09
2022-08-05T08:48:10.755Z,101129.03
2022-08-05T08:51:21.987Z,101139.53
2022-08-05T08:53:36.592Z,101136.91
2022-08-05T08:56:06.538Z,101126.41
2022-08-05T08:58:43.081Z,101127.34
2022-08-05T09:01:16.311Z,101128.69
2022-08-05T09:03:54.540Z,101128.63
2022-08-05T09:06:30.263Z,101125.72
2022-08-05T09:09:02.369Z,101133.16
2022-08-05T09:11:52.034Z,101124.97
2022-08-05T09:14:58.633Z,101119.88
2022-08-05T09:17:42.942Z,101118.25
2022-08-05T09:20:05.849Z,101121.84
2022-08-05T09:23:07.938Z,101123.97
2022-08-05T09:26:02.045Z,101122.38
2022-08-05T09:28:32.350Z,101116.16
2022-08-05T09:31:23.023Z,101118.28
2022-08-05T09:34:04.157Z,101119.09
2022-08-05T09:36:56.401Z,101114.97
2022-08-05T09:39:41.990Z,101117.00
2022-08-05T09:42:23.884Z,101122.56
2022-08-05T09:46:05.015Z,101113.88
2022-08-05T09:47:56.457Z,101111.72
2022-08-05T09:50:44.247Z,101111.75
2022-08-05T09:53:22.840Z,101111.50
2022-08-05T09:56:04.699Z,101114.78
2022-08-05T09:58:42.458Z,101108.97
2022-08-05T10:01:14.869Z,101107.06
2022-08-05T10:04:10.353Z,101122.22
2022-08-05T10:06:58.872Z,101116.00
2022-08-05T10:09:29.836Z,101110.75
2022-08-05T10:12:18.711Z,101107.97
2022-08-05T10:15:25.722Z,101104.16
2022-08-05T10:18:22.774Z,101098.78
2022-08-05T10:20:54.904Z,101103.41
2022-08-05T10:23:56.113Z,101094.59
2022-08-05T10:26:18.062Z,101101.47
2022-08-05T10:28:47.191Z,101099.72
2022-08-05T10:33:02.199Z,101094.06
2022-08-05T10:34:08.255Z,101089.34
2022-08-05T10:36:38.467Z,101088.00
2022-08-05T10:40:03.097Z,101084.88
2022-08-05T10:42:32.410Z,101086.66
2022-08-05T10:45:21.291Z,101083.50
2022-08-05T10:48:27.579Z,101082.19
2022-08-05T10:51:00.336Z,101085.84
2022-08-05T10:53:50.289Z,101091.25
2022-08-05T10:56:36.708Z,101094.59
2022-08-05T10:59:12.713Z,101099.88
2022-08-05T11:02:14.449Z,101102.31
2022-08-05T11:05:05.659Z,101110.09
2022-08-05T11:08:02.439Z,101116.84
2022-08-05T11:10:27.698Z,101113.75
2022-08-05T11:12:59.067Z,101105.44
2022-08-05T11:16:01.307Z,101106.56
2022-08-05T11:18:34.674Z,101094.94
2022-08-05T11:21:06.217Z,101091.63
2022-08-05T11:24:04.139Z,101088.72
2022-08-05T11:26:32.861Z,101076.16
2022-08-05T11:29:13.466Z,101070.44
2022-08-05T11:31:57.937Z,101076.66
2022-08-05T11:34:52.148Z,101080.19
2022-08-05T11:38:37.398Z,101071.41
2022-08-05T11:41:54.526Z,101076.25
2022-08-05T11:44:40.201Z,101085.41
2022-08-05T11:47:11.067Z,101073.34
2022-08-05T11:49:42.944Z,101064.56
2022-08-05T11:52:12.159Z,101073.50
2022-08-05T11:54:43.525Z,101074.06
2022-08-05T11:57:25.454Z,101073.22
2022-08-05T11:59:56.717Z,101079.75
2022-08-05T12:02:48.895Z,101072.69
2022-08-05T12:05:32.371Z,101060.28
2022-08-05T12:08:11.567Z,101066.09
2022-08-05T12:10:50.342Z,101049.97
2022-08-05T12:13:47.803Z,101052.25
2022-08-05T12:16:17.916Z,101056.47
2022-08-05T12:18:53.047Z,101051.00
2022-08-05T12:21:26.915Z,101046.84
2022-08-05T12:24:07.566Z,101051.28
2022-08-05T12:26:43.874Z,101041.44
2022-08-05T12:29:23.010Z,101040.72
2022-08-05T12:31:57.496Z,101038.84
2022-08-05T12:34:30.070Z,101031.16
2022-08-05T12:37:17.302Z,101038.84
2022-08-05T12:39:55.357Z,101035.44
2022-08-05T12:42:32.289Z,101037.59
2022-08-05T12:45:08.919Z,101037.50
2022-08-05T12:47:43.494Z,101030.59
2022-08-05T12:50:27.816Z,101022.56
2022-08-05T12:53:02.645Z,101025.66
2022-08-05T12:55:32.504Z,101017.53
2022-08-05T12:58:48.355Z,101017.91
2022-08-05T13:02:01.594Z,101014.31
2022-08-05T13:03:41.915Z,101018.03
2022-08-05T13:06:21.113Z,101015.59
2022-08-05T13:08:51.583Z,101018.91
2022-08-05T13:12:01.436Z,101018.72
2022-08-05T13:14:24.689Z,101026.19
2022-08-05T13:17:17.649Z,101022.50
2022-08-05T13:20:03.651Z,101031.50
2022-08-05T13:22:39.895Z,101023.41
2022-08-05T13:25:18.901Z,101021.22
2022-08-05T13:27:53.032Z,101020.31
2022-08-05T13:30:33.920Z,101026.00
2022-08-05T13:33:05.079Z,101014.81
2022-08-05T13:35:47.515Z,101014.53
2022-08-05T13:38:30.413Z,101024.47
2022-08-05T13:41:01.009Z,101028.72
2022-08-05T13:43:43.571Z,101026.81
2022-08-05T13:46:16.546Z,101026.44
2022-08-05T13:49:04.813Z,101023.97
2022-08-05T13:51:41.392Z,101032.50
2022-08-05T13:54:13.656Z,101024.75
2022-08-05T13:56:51.571Z,101019.72
2022-08-05T13:59:24.901Z,101020.34
2022-08-05T14:02:00.031Z,101015.19
2022-08-05T14:04:51.035Z,101015.19
2022-08-05T14:08:00.952Z,101008.81
2022-08-05T14:10:28.719Z,101015.94
2022-08-05T14:13:00.377Z,101007.69
2022-08-05T14:16:07.403Z,101017.41
2022-08-05T14:18:23.499Z,101023.25
2022-08-05T14:20:55.125Z,101016.97
2022-08-05T14:23:29.674Z,101012.41
2022-08-05T14:26:05.011Z,101014.53
2022-08-05T14:28:35.104Z,101010.56
2022-08-05T14:31:03.981Z,101015.16
2022-08-05T14:33:59.248Z,101009.47
2022-08-05T14:36:29.015Z,101008.50
2022-08-05T14:38:59.051Z,101012.16
2022-08-05T14:41:30.914Z,101002.09
2022-08-05T14:44:09.657Z,101015.25
2022-08-05T14:46:38.532Z,101009.78
2022-08-05T14:49:08.142Z,101013.59
2022-08-05T14:51:42.836Z,101008.53
2022-08-05T14:54:28.141Z,101007.25
2022-08-05T14:56:58.887Z,101008.19
2022-08-05T14:59:29.687Z,101023.34
2022-08-05T15:02:16.134Z,101017.75
2022-08-05T15:04:47.836Z,101028.84
2022-08-05T15:08:06.859Z,101017.81
2022-08-05T15:10:09.690Z,101026.59
2022-08-05T15:13:00.267Z,101035.88
2022-08-05T15:15:53.969Z,101043.16
2022-08-05T15:18:17.273Z,101049.44
2022-08-05T15:20:46.124Z,101056.50
2022-08-05T15:23:15.959Z,101053.94
2022-08-05T15:25:52.679Z,101054.16
2022-08-05T15:28:27.401Z,101057.03
2022-08-05T15:30:56.969Z,101049.31
2022-08-05T15:34:04.449Z,101063.91
2022-08-05T15:36:17.798Z,101072.09
2022-08-05T15:40:41.166Z,101070.25
2022-08-05T15:41:57.872Z,101065.09
2022-08-05T15:44:30.419Z,101077.16
2022-08-05T15:47:01.848Z,101082.00
2022-08-05T15:49:48.229Z,101085.28
2022-08-05T15:52:52.162Z,101084.22
2022-08-05T15:55:16.064Z,101085.88
2022-08-05T15:57:45.309Z,101076.84
2022-08-05T16:00:16.795Z,101074.59
2022-08-05T16:02:45.315Z,101071.53
2022-08-05T16:05:16.166Z,101063.25
2022-08-05T16:07:46.354Z,101068.34
2022-08-05T16:10:15.048Z,101073.50
2022-08-05T16:12:43.754Z,101075.97
2022-08-05T16:15:18.369Z,101068.78
2022-08-05T16:17:57.832Z,101068.22
2022-08-05T16:20:27.935Z,101065.94
2022-08-05T16:22:57.496Z,101070.75
2022-08-05T16:25:32.159Z,101074.41
2022-08-05T16:28:09.744Z,101075.09
2022-08-05T16:30:39.001Z,101073.19
2022-08-05T16:33:10.221Z,101069.03
2022-08-05T16:35:42.917Z,101071.00
2022-08-05T16:38:18.530Z,101065.88
2022-08-05T16:41:00.545Z,101071.34
2022-08-05T16:43:36.352Z,101074.81
2022-08-05T16:46:23.497Z,101070.56
2022-08-05T16:48:53.409Z,101076.03
2022-08-05T16:51:24.059Z,101072.84
2022-08-05T16:54:05.932Z,101081.19
2022-08-05T16:56:44.480Z,101086.66
2022-08-05T16:59:15.640Z,101087.56
2022-08-05T17:01:54.588Z,101088.56
2022-08-05T17:04:28.629Z,101092.81
2022-08-05T17:07:01.489Z,101093.53
2022-08-05T17:09:39.001Z,101080.50
2022-08-05T17:12:22.758Z,101081.34
2022-08-05T17:15:09.373Z,101080.00
2022-08-05T17:17:42.028Z,101081.34
2022-08-05T17:20:14.662Z,101069.88
2022-08-05T17:22:43.830Z,101071.00
2022-08-05T17:25:33.810Z,101070.13
2022-08-05T17:28:02.460Z,101066.59
2022-08-05T17:30:31.277Z,101071.00
2022-08-05T17:32:59.771Z,101064.28
2022-08-05T17:35:28.102Z,101066.47
2022-08-05T17:38:17.513Z,101081.22
2022-08-05T17:40:45.993Z,101070.63
2022-08-05T17:43:15.786Z,101075.38
2022-08-05T17:45:44.110Z,101083.81
2022-08-05T17:48:13.088Z,101082.31
2022-08-05T17:50:45.361Z,101092.91
2022-08-05T17:53:13.803Z,101100.25
2022-08-05T17:55:42.887Z,101099.75
2022-08-05T17:58:14.621Z,101101.81
2022-08-05T18:00:51.043Z,101109.97
2022-08-05T18:03:48.365Z,101112.41
2022-08-05T18:06:11.535Z,101108.88
2022-08-05T18:08:44.438Z,101115.59
2022-08-05T18:11:24.349Z,101113.53
2022-08-05T18:14:03.475Z,101115.72
2022-08-05T18:16:51.317Z,101118.41
2022-08-05T18:19:22.660Z,101118.38
2022-08-05T18:22:07.114Z,101127.88
2022-08-05T18:24:39.377Z,101129.34
2022-08-05T18:27:12.836Z,101126.19
2022-08-05T18:29:53.642Z,101119.47
2022-08-05T18:32:28.369Z,101119.69
2022-08-05T18:34:58.746Z,101111.78
2022-08-05T18:37:34.133Z,101116.78
2022-08-05T18:40:34.288Z,101108.56
2022-08-05T18:42:52.513Z,101105.38
2022-08-05T18:45:21.006Z,101114.88
2022-08-05T18:47:53.244Z,101113.31
2022-08-05T18:50:46.349Z,101116.47
2022-08-05T18:53:22.800Z,101113.03
2022-08-05T18:55:53.484Z,101115.63
2022-08-05T18:58:27.252Z,101116.09
2022-08-05T19:00:57.789Z,101109.63
2022-08-05T19:03:26.313Z,101113.41
2022-08-05T19:06:21.905Z,101117.47
2022-08-05T19:08:51.417Z,101109.03
2022-08-05T19:11:28.650Z,101107.81
2022-08-05T19:14:53.227Z,101107.44
2022-08-05T19:16:58.542Z,101099.88
2022-08-05T19:19:26.748Z,101098.00
2022-08-05T19:21:59.578Z,101090.47
2022-08-05T19:24:34.794Z,101093.66
2022-08-05T19:27:06.029Z,101085.88
2022-08-05T19:29:36.080Z,101081.22
2022-08-05T19:32:08.586Z,101079.50
2022-08-05T19:34:58.558Z,101089.97
2022-08-05T19:38:04.479Z,101090.81
2022-08-05T19:40:18.786Z,101090.81
2022-08-05T19:43:05.427Z,101080.34
2022-08-05T19:45:36.921Z,101083.75
2022-08-05T19:48:06.675Z,101087.03
2022-08-05T19:50:35.448Z,101082.38
2022-08-05T19:53:09.690Z,101074.84
2022-08-05T19:56:12.511Z,101071.44
2022-08-05T19:58:30.091Z,101073.25
2022-08-05T20:00:58.969Z,101066.72
2022-08-05T20:03:40.748Z,101064.56
2022-08-05T20:06:14.837Z,101059.78
2022-08-05T20:08:47.494Z,101058.16
2022-08-05T20:11:20.005Z,101051.25
2022-08-05T20:13:59.021Z,101059.13
2022-08-05T20:16:38.517Z,101060.69
2022-08-05T20:19:06.722Z,101054.06
2022-08-05T20:21:35.385Z,101055.38
2022-08-05T20:24:07.686Z,101055.16
2022-08-05T20:26:39.763Z,101051.16
2022-08-05T20:29:27.428Z,101052.47
2022-08-05T20:31:58.348Z,101046.00
2022-08-05T20:34:28.530Z,101045.88
2022-08-05T20:36:56.916Z,101043.91
2022-08-05T20:39:26.048Z,101050.00
2022-08-05T20:42:06.056Z,101057.91
2022-08-05T20:44:37.828Z,101066.34
2022-08-05T20:47:07.757Z,101052.28
2022-08-05T20:49:39.619Z,101058.84
2022-08-05T20:52:10.721Z,101057.75
2022-08-05T20:54:43.377Z,101063.34
2022-08-05T20:57:43.543Z,101067.59
2022-08-05T21:00:40.789Z,101072.25
2022-08-05T21:03:06.243Z,101071.25
2022-08-05T21:05:47.542Z,101062.69
2022-08-05T21:08:41.315Z,101069.22
2022-08-05T21:11:12.403Z,101070.47
2022-08-05T21:13:56.516Z,101068.66
2022-08-05T21:16:30.202Z,101069.22
2022-08-05T21:19:01.682Z,101059.59
2022-08-05T21:21:43.768Z,101056.47
2022-08-05T21:24:20.006Z,101052.88
2022-08-05T21:26:53.285Z,101057.09
2022-08-05T21:29:26.455Z,101059.03
2022-08-05T21:32:00.417Z,101059.34
2022-08-05T21:34:29.088Z,101057.81
2022-08-05T21:37:00.549Z,101060.34
2022-08-05T21:39:30.291Z,101055.63
2022-08-05T21:42:02.990Z,101058.25
2022-08-05T21:44:32.535Z,101061.25
2022-08-05T21:47:01.422Z,101064.75
2022-08-05T21:49:58.472Z,101055.53
2022-08-05T21:52:26.887Z,101049.94
2022-08-05T21:55:06.229Z,101058.94
2022-08-05T21:57:36.610Z,101055.13
2022-08-05T22:00:13.365Z,101058.31
2022-08-05T22:02:43.412Z,101055.75
2022-08-05T22:05:13.188Z,101060.41
2022-08-05T22:07:58.839Z,101056.63
2022-08-05T22:10:30.902Z,101058.94
2022-08-05T22:13:09.259Z,101072.13
2022-08-05T22:16:01.703Z,101070.06
2022-08-05T22:18:36.275Z,101073.75
2022-08-05T22:21:18.866Z,101066.25
2022-08-05T22:24:13.337Z,101065.63
2022-08-05T22:27:16.613Z,101075.59
2022-08-05T22:29:46.316Z,101071.72
2022-08-05T22:32:17.370Z,101075.38
2022-08-05T22:34:45.921Z,101070.00
2022-08-05T22:37:14.166Z,101069.19
2022-08-05T22:39:42.940Z,101073.03
2022-08-05T22:42:15.313Z,101072.81
2022-08-05T22:44:48.511Z,101071.75
2022-08-05T22:47:28.936Z,101079.88
2022-08-05T22:50:19.552Z,101074.69
2022-08-05T22:52:52.727Z,101070.72
2022-08-05T22:55:23.296Z,101074.28
2022-08-05T22:57:53.599Z,101078.63
2022-08-05T23:00:24.462Z,101074.38
2022-08-05T23:02:55.345Z,101070.53
2022-08-05T23:05:23.714Z,101071.63
2022-08-05T23:07:52.873Z,101067.31
2022-08-05T23:10:23.907Z,101064.53
2022-08-05T23:12:54.767Z,101065.63
2022-08-05T23:15:35.244Z,101062.13
2022-08-05T23:18:06.111Z,101056.44
2022-08-05T23:20:40.657Z,101056.44
2022-08-05T23:23:11.583Z,101056.47
2022-08-05T23:25:51.003Z,101059.56
2022-08-05T23:28:23.845Z,101062.94
2022-08-05T23:30:53.088Z,101066.63
2022-08-05T23:33:25.913Z,101060.81
2022-08-05T23:36:13.537Z,101060.75
2022-08-05T23:38:43.001Z,101064.00
2022-08-05T23:41:12.318Z,101072.19
2022-08-05T23:44:05.188Z,101066.81
2022-08-05T23:46:30.465Z,101069.59
2022-08-05T23:49:00.512Z,101054.63
2022-08-05T23:51:54.049Z,101062.53
2022-08-05T23:54:30.229Z,101053.66
2022-08-05T23:57:04.896Z,101065.94
